createdAt,value
2023-01-27T00:00:25.185Z,12.60
2023-01-27T00:03:13.689Z,11.43
2023-01-27T00:05:49.742Z,12.95
2023-01-27T00:08:42.668Z,16.75
2023-01-27T00:11:39.335Z,10.30
2023-01-27T00:14:13.845Z,11.68
2023-01-27T00:16:53.012Z,13.15
2023-01-27T00:19:30.754Z,12.45
2023-01-27T00:22:38.090Z,13.48
2023-01-27T00:25:20.185Z,13.15
2023-01-27T00:33:29.952Z,12.50
2023-01-27T00:36:20.417Z,17.50
2023-01-27T00:38:51.574Z,14.15
2023-01-27T00:41:32.632Z,12.90
2023-01-27T00:46:53.348Z,14.55
2023-01-27T00:49:27.415Z,11.25
2023-01-27T00:52:08.461Z,9.55
2023-01-27T00:54:44.230Z,13.45
2023-01-27T00:57:11.361Z,14.32
2023-01-27T00:59:42.195Z,11.27
2023-01-27T01:02:19.461Z,14.57
2023-01-27T01:05:00.800Z,13.73
2023-01-27T01:07:45.878Z,13.25
2023-01-27T01:10:14.306Z,17.38
2023-01-27T01:12:53.149Z,14.77
2023-01-27T01:15:28.123Z,12.35
2023-01-27T01:18:08.987Z,16.35
2023-01-27T01:23:30.962Z,17.00
2023-01-27T01:26:10.771Z,16.45
2023-01-27T01:28:55.451Z,14.15
2023-01-27T01:31:27.091Z,12.35
2023-01-27T01:34:00.913Z,11.70
2023-01-27T01:36:41.937Z,17.55
2023-01-27T01:39:20.517Z,13.70
2023-01-27T01:41:58.920Z,14.55
2023-01-27T01:44:40.992Z,12.23
2023-01-27T01:47:26.952Z,17.38
2023-01-27T01:50:08.993Z,11.73
2023-01-27T01:52:43.301Z,12.88
2023-01-27T01:55:15.314Z,16.20
2023-01-27T01:57:45.549Z,11.50
2023-01-27T02:00:17.012Z,15.90
2023-01-27T02:02:51.823Z,17.55
2023-01-27T02:05:38.483Z,12.82
2023-01-27T02:08:27.763Z,14.65
2023-01-27T02:10:54.981Z,16.38
2023-01-27T02:13:30.063Z,12.55
2023-01-27T02:16:10.007Z,13.05
2023-01-27T02:18:46.348Z,18.52
2023-01-27T02:21:15.157Z,12.55
2023-01-27T02:27:08.593Z,16.73
2023-01-27T02:29:48.972Z,13.85
2023-01-27T02:32:34.786Z,17.70
2023-01-27T02:35:18.805Z,15.23
2023-01-27T02:40:44.693Z,13.57
2023-01-27T02:43:12.569Z,18.80
2023-01-27T02:45:42.859Z,18.10
2023-01-27T02:48:29.828Z,19.58
2023-01-27T02:51:02.155Z,17.98
2023-01-27T02:53:29.442Z,14.15
2023-01-27T02:55:56.703Z,13.98
2023-01-27T02:58:28.849Z,16.05
2023-01-27T03:01:11.130Z,16.90
2023-01-27T03:03:49.996Z,17.38
2023-01-27T03:06:49.305Z,16.67
2023-01-27T03:09:25.461Z,16.33
2023-01-27T03:12:22.368Z,13.02
2023-01-27T03:15:10.040Z,15.73
2023-01-27T03:17:59.188Z,18.95
2023-01-27T03:20:32.451Z,16.33
2023-01-27T03:23:10.713Z,16.90
2023-01-27T03:25:56.898Z,20.33
2023-01-27T03:28:26.350Z,21.13
2023-01-27T03:31:22.442Z,15.20
2023-01-27T03:33:49.520Z,21.58
2023-01-27T03:36:35.568Z,17.50
2023-01-27T03:39:21.407Z,15.07
2023-01-27T03:42:07.014Z,14.93
2023-01-27T03:45:04.586Z,17.52
2023-01-27T03:50:39.566Z,17.85
2023-01-27T03:53:06.657Z,15.20
2023-01-27T03:55:58.618Z,12.65
2023-01-27T03:58:46.824Z,14.02
2023-01-27T04:01:35.020Z,14.10
2023-01-27T04:04:26.804Z,15.52
2023-01-27T04:07:10.101Z,13.68
2023-01-27T04:09:37.997Z,13.25
2023-01-27T04:12:08.169Z,13.95
2023-01-27T04:14:48.882Z,13.82
2023-01-27T04:17:39.026Z,14.50
2023-01-27T04:20:09.108Z,16.05
2023-01-27T04:22:44.944Z,14.05
2023-01-27T04:25:26.438Z,15.52
2023-01-27T04:28:07.363Z,14.90
2023-01-27T04:30:37.641Z,14.48
2023-01-27T04:33:10.513Z,16.55
2023-01-27T04:35:49.044Z,15.15
2023-01-27T04:38:41.489Z,14.35
2023-01-27T04:41:15.999Z,14.48
2023-01-27T04:43:49.797Z,14.85
2023-01-27T04:46:16.683Z,14.07
2023-01-27T04:48:49.095Z,16.15
2023-01-27T04:51:18.551Z,15.85
2023-01-27T04:53:57.807Z,14.68
2023-01-27T04:56:40.349Z,15.77
2023-01-27T04:59:20.470Z,15.52
2023-01-27T05:01:49.603Z,14.80
2023-01-27T05:04:16.933Z,14.68
2023-01-27T05:06:49.475Z,14.98
2023-01-27T05:09:16.411Z,20.08
2023-01-27T05:11:44.674Z,15.35
2023-01-27T05:14:18.463Z,15.48
2023-01-27T05:16:48.475Z,13.48
2023-01-27T05:19:15.284Z,15.95
2023-01-27T05:21:50.331Z,19.15
2023-01-27T05:24:20.791Z,17.15
2023-01-27T05:26:57.926Z,15.98
2023-01-27T05:29:25.809Z,17.75
2023-01-27T05:31:55.280Z,16.48
2023-01-27T05:34:25.640Z,14.57
2023-01-27T05:37:00.939Z,15.32
2023-01-27T05:39:27.825Z,15.48
2023-01-27T05:41:54.673Z,17.00
2023-01-27T05:44:43.582Z,16.75
2023-01-27T05:47:19.970Z,18.38
2023-01-27T05:49:46.787Z,18.05
2023-01-27T05:52:13.671Z,16.20
2023-01-27T05:54:45.794Z,15.10
2023-01-27T05:57:12.456Z,14.50
2023-01-27T05:59:39.328Z,14.70
2023-01-27T06:02:06.363Z,18.10
2023-01-27T06:04:33.165Z,17.95
2023-01-27T06:07:01.042Z,15.90
2023-01-27T06:09:28.639Z,16.45
2023-01-27T06:11:58.446Z,15.50
2023-01-27T06:14:29.101Z,14.38
2023-01-27T06:17:06.266Z,15.52
2023-01-27T06:19:33.639Z,19.27
2023-01-27T06:22:11.719Z,16.02
2023-01-27T06:24:45.226Z,17.63
2023-01-27T06:29:58.729Z,17.92
2023-01-27T06:32:31.832Z,17.63
2023-01-27T06:34:58.716Z,24.65
2023-01-27T06:37:25.473Z,22.85
2023-01-27T06:40:01.731Z,17.73
2023-01-27T06:42:43.444Z,19.58
2023-01-27T06:45:15.599Z,20.65
2023-01-27T06:47:50.456Z,18.33
2023-01-27T06:50:25.674Z,16.17
2023-01-27T06:53:20.917Z,17.17
2023-01-27T06:55:47.896Z,15.95
2023-01-27T06:58:24.307Z,23.88
2023-01-27T07:00:51.192Z,16.95
2023-01-27T07:03:26.820Z,16.30
2023-01-27T07:05:53.743Z,20.42
2023-01-27T07:08:20.561Z,17.08
2023-01-27T07:10:56.307Z,17.90
2023-01-27T07:13:30.848Z,25.10
2023-01-27T07:16:00.750Z,20.13
2023-01-27T07:18:37.139Z,19.83
2023-01-27T07:21:05.657Z,18.17
2023-01-27T07:23:33.132Z,16.27
2023-01-27T07:26:24.660Z,16.48
2023-01-27T07:28:52.139Z,16.17
2023-01-27T07:31:23.489Z,17.02
2023-01-27T07:33:50.530Z,17.23
2023-01-27T07:36:20.859Z,17.70
2023-01-27T07:38:51.347Z,16.60
2023-01-27T07:41:18.246Z,14.88
2023-01-27T07:43:45.026Z,16.63
2023-01-27T07:46:11.859Z,17.63
2023-01-27T07:48:38.772Z,14.68
2023-01-27T07:51:08.097Z,14.90
2023-01-27T07:53:39.373Z,20.02
2023-01-27T07:56:11.961Z,15.75
2023-01-27T08:01:13.201Z,14.95
2023-01-27T08:03:47.657Z,17.42
2023-01-27T08:06:25.841Z,15.65
2023-01-27T08:11:50.789Z,17.00
2023-01-27T08:14:26.382Z,22.60
2023-01-27T08:16:55.951Z,18.50
2023-01-27T08:19:31.467Z,15.57
2023-01-27T08:22:03.429Z,14.20
2023-01-27T08:24:36.981Z,14.57
2023-01-27T08:27:27.376Z,12.98
2023-01-27T08:30:03.499Z,25.08
2023-01-27T08:32:39.048Z,17.90
2023-01-27T08:35:14.308Z,16.63
2023-01-27T08:37:43.917Z,18.88
2023-01-27T08:40:13.547Z,15.95
2023-01-27T08:43:03.997Z,15.57
2023-01-27T08:45:47.348Z,15.00
2023-01-27T08:48:24.071Z,14.38
2023-01-27T08:50:54.030Z,17.65
2023-01-27T08:53:22.257Z,16.65
2023-01-27T08:55:49.558Z,15.93
2023-01-27T08:58:30.133Z,12.68
2023-01-27T09:01:15.440Z,12.57
2023-01-27T09:03:44.253Z,14.40
2023-01-27T09:06:27.169Z,14.90
2023-01-27T09:09:22.823Z,18.58
2023-01-27T09:11:58.903Z,15.52
2023-01-27T09:14:30.520Z,13.68
2023-01-27T09:17:01.744Z,11.98
2023-01-27T09:19:38.129Z,16.25
2023-01-27T09:25:15.098Z,18.13
2023-01-27T09:27:42.103Z,13.73
2023-01-27T09:30:12.120Z,14.80
2023-01-27T09:35:33.683Z,14.48
2023-01-27T09:38:02.956Z,11.23
2023-01-27T09:40:57.688Z,13.15
2023-01-27T09:44:04.943Z,14.32
2023-01-27T09:47:00.261Z,14.20
2023-01-27T09:49:27.047Z,18.90
2023-01-27T09:52:46.507Z,12.75
2023-01-27T09:56:04.825Z,16.90
2023-01-27T09:59:30.185Z,11.43
2023-01-27T10:02:20.328Z,12.25
2023-01-27T10:05:33.889Z,15.35
2023-01-27T10:08:12.889Z,16.85
2023-01-27T10:11:01.519Z,12.85
2023-01-27T10:13:36.993Z,13.27
2023-01-27T10:16:31.446Z,11.55
2023-01-27T10:19:59.054Z,13.65
2023-01-27T10:22:46.359Z,14.05
2023-01-27T10:25:35.733Z,13.48
2023-01-27T10:28:18.689Z,17.80
2023-01-27T10:31:04.576Z,15.88
2023-01-27T10:33:57.299Z,12.45
2023-01-27T10:36:58.625Z,16.83
2023-01-27T10:40:04.358Z,12.32
2023-01-27T10:42:49.779Z,11.88
2023-01-27T10:45:46.467Z,11.13
2023-01-27T10:48:38.260Z,14.18
2023-01-27T10:51:14.957Z,20.60
2023-01-27T10:53:57.551Z,16.63
2023-01-27T10:56:37.488Z,13.05
2023-01-27T10:59:15.269Z,11.38
2023-01-27T11:01:54.789Z,13.60
2023-01-27T11:05:13.185Z,13.15
2023-01-27T11:07:57.424Z,13.02
2023-01-27T11:10:32.271Z,11.32
2023-01-27T11:13:01.913Z,12.02
2023-01-27T11:15:42.216Z,12.40
2023-01-27T11:18:40.133Z,12.95
2023-01-27T11:21:16.653Z,9.45
2023-01-27T11:23:58.411Z,13.27
2023-01-27T11:26:59.080Z,12.10
2023-01-27T11:29:54.724Z,15.63
2023-01-27T11:33:06.699Z,9.65
2023-01-27T11:35:49.730Z,12.15
2023-01-27T11:41:20.792Z,13.45
2023-01-27T11:43:56.669Z,10.15
2023-01-27T11:46:45.294Z,12.98
2023-01-27T11:49:49.241Z,13.80
2023-01-27T11:52:31.319Z,15.02
2023-01-27T11:55:38.254Z,9.82
2023-01-27T11:58:34.469Z,9.18
2023-01-27T12:01:49.190Z,9.13
2023-01-27T12:04:27.260Z,10.02
2023-01-27T12:07:19.229Z,13.32
2023-01-27T12:09:48.647Z,9.18
2023-01-27T12:12:15.983Z,11.52
2023-01-27T12:14:57.954Z,10.35
2023-01-27T12:17:43.128Z,10.82
2023-01-27T12:20:22.446Z,11.80
2023-01-27T12:23:04.293Z,11.05
2023-01-27T12:25:55.143Z,12.23
2023-01-27T12:29:07.946Z,11.10
2023-01-27T12:31:45.999Z,10.55
2023-01-27T12:34:38.042Z,11.27
2023-01-27T12:37:08.063Z,7.97
2023-01-27T12:39:57.235Z,8.60
2023-01-27T12:42:48.140Z,11.27
2023-01-27T12:45:25.033Z,7.32
2023-01-27T12:48:24.434Z,10.60
2023-01-27T12:50:51.221Z,11.45
2023-01-27T12:53:20.315Z,9.65
2023-01-27T12:56:14.172Z,6.97
2023-01-27T12:58:47.076Z,6.60
2023-01-27T13:01:37.908Z,7.53
2023-01-27T13:04:27.688Z,7.30
2023-01-27T13:07:09.307Z,10.43
2023-01-27T13:10:05.519Z,8.77
2023-01-27T13:12:51.378Z,6.50
2023-01-27T13:15:25.382Z,9.05
2023-01-27T13:17:54.162Z,10.13
2023-01-27T13:20:36.102Z,7.53
2023-01-27T13:23:12.203Z,9.63
2023-01-27T13:25:55.284Z,8.35
2023-01-27T13:28:52.775Z,10.90
2023-01-27T13:32:06.666Z,9.68
2023-01-27T13:34:45.073Z,6.20
2023-01-27T13:37:23.266Z,6.30
2023-01-27T13:40:12.828Z,7.35
2023-01-27T13:43:17.265Z,10.98
2023-01-27T13:46:05.342Z,8.57
2023-01-27T13:48:38.366Z,10.75
2023-01-27T13:51:18.868Z,8.25
2023-01-27T13:53:50.671Z,8.15
2023-01-27T13:57:00.470Z,8.80
2023-01-27T13:59:43.476Z,6.82
2023-01-27T14:02:38.338Z,11.60
2023-01-27T14:05:30.660Z,7.03
2023-01-27T14:08:42.069Z,8.90
2023-01-27T14:11:11.307Z,9.13
2023-01-27T14:13:59.518Z,9.25
2023-01-27T14:16:29.619Z,10.13
2023-01-27T14:19:00.369Z,7.82
2023-01-27T14:21:53.235Z,9.55
2023-01-27T14:24:37.172Z,7.88
2023-01-27T14:27:13.225Z,7.50
2023-01-27T14:30:07.452Z,11.63
2023-01-27T14:32:59.144Z,8.70
2023-01-27T14:35:47.265Z,10.85
2023-01-27T14:38:31.160Z,8.05
2023-01-27T14:41:31.216Z,9.05
2023-01-27T14:44:14.219Z,8.68
2023-01-27T14:49:38.747Z,7.55
2023-01-27T14:52:26.389Z,7.25
2023-01-27T14:55:23.936Z,9.40
2023-01-27T14:58:12.986Z,7.95
2023-01-27T15:04:26.637Z,7.25
2023-01-27T15:07:23.264Z,8.23
2023-01-27T15:10:01.761Z,8.48
2023-01-27T15:12:48.491Z,6.57
2023-01-27T15:15:51.187Z,11.38
2023-01-27T15:18:43.805Z,12.93
2023-01-27T15:21:38.422Z,6.88
2023-01-27T15:24:52.195Z,9.73
2023-01-27T15:27:25.141Z,9.05
2023-01-27T15:29:52.710Z,5.90
2023-01-27T15:35:29.721Z,8.93
2023-01-27T15:38:39.606Z,7.30
2023-01-27T15:41:14.931Z,10.02
2023-01-27T15:44:15.752Z,12.18
2023-01-27T15:46:46.277Z,9.23
2023-01-27T15:49:51.233Z,6.88
2023-01-27T15:52:53.424Z,8.23
2023-01-27T15:55:33.200Z,5.73
2023-01-27T15:58:38.140Z,8.20
2023-01-27T16:02:44.543Z,6.05
2023-01-27T16:04:25.418Z,6.97
2023-01-27T16:07:02.540Z,8.43
2023-01-27T16:10:06.625Z,6.13
2023-01-27T16:12:53.694Z,8.73
2023-01-27T16:15:51.031Z,6.45
2023-01-27T16:18:34.733Z,7.63
2023-01-27T16:21:14.278Z,5.88
2023-01-27T16:23:58.447Z,7.18
2023-01-27T16:26:37.740Z,6.07
2023-01-27T16:29:21.648Z,9.02
2023-01-27T16:32:17.660Z,12.32
2023-01-27T16:34:51.179Z,9.18
2023-01-27T16:38:01.828Z,7.20
2023-01-27T16:40:37.266Z,11.80
2023-01-27T16:43:20.382Z,8.07
2023-01-27T16:45:51.169Z,10.40
2023-01-27T16:48:42.949Z,7.03
2023-01-27T16:51:27.593Z,12.27
2023-01-27T16:54:09.545Z,7.18
2023-01-27T16:56:39.351Z,7.20
2023-01-27T16:59:09.269Z,9.90
2023-01-27T17:01:59.295Z,9.63
2023-01-27T17:04:34.683Z,7.82
2023-01-27T17:07:14.582Z,11.05
2023-01-27T17:10:01.926Z,10.02
2023-01-27T17:12:31.157Z,10.55
2023-01-27T17:14:59.849Z,10.20
2023-01-27T17:17:31.773Z,7.78
2023-01-27T17:20:03.975Z,9.82
2023-01-27T17:22:43.996Z,7.95
2023-01-27T17:25:18.373Z,12.70
2023-01-27T17:27:45.701Z,7.95
2023-01-27T17:30:14.926Z,8.93
2023-01-27T17:32:49.092Z,8.38
2023-01-27T17:35:26.555Z,9.77
2023-01-27T17:38:14.787Z,8.27
2023-01-27T17:40:50.563Z,11.55
2023-01-27T17:43:37.828Z,7.10
2023-01-27T17:46:15.987Z,7.25
2023-01-27T17:48:56.676Z,8.48
2023-01-27T17:51:27.497Z,10.40
2023-01-27T17:53:55.503Z,10.48
2023-01-27T17:56:34.929Z,8.80
2023-01-27T17:59:11.327Z,9.68
2023-01-27T18:01:42.083Z,11.60
2023-01-27T18:04:17.008Z,8.77
2023-01-27T18:06:48.363Z,9.43
2023-01-27T18:09:34.870Z,11.13
2023-01-27T18:12:06.995Z,8.68
2023-01-27T18:14:42.946Z,12.35
2023-01-27T18:17:27.704Z,11.32
2023-01-27T18:20:04.523Z,10.40
2023-01-27T18:22:44.803Z,12.18
2023-01-27T18:25:19.079Z,12.70
2023-01-27T18:27:53.712Z,9.70
2023-01-27T18:30:26.419Z,15.85
2023-01-27T18:33:01.930Z,17.50
2023-01-27T18:35:48.434Z,12.57
2023-01-27T18:38:32.951Z,12.75
2023-01-27T18:41:31.520Z,8.85
2023-01-27T18:44:08.773Z,15.27
2023-01-27T18:46:47.526Z,16.05
2023-01-27T18:49:29.867Z,19.63
2023-01-27T18:52:25.652Z,12.60
2023-01-27T18:55:07.101Z,15.00
2023-01-27T18:58:09.746Z,9.27
2023-01-27T19:00:50.847Z,12.27
2023-01-27T19:03:34.880Z,15.68
2023-01-27T19:06:26.319Z,11.93
2023-01-27T19:08:55.499Z,8.68
2023-01-27T19:11:24.306Z,13.85
2023-01-27T19:14:01.889Z,10.60
2023-01-27T19:16:40.735Z,10.80
2023-01-27T19:19:24.640Z,10.07
2023-01-27T19:21:58.053Z,12.80
2023-01-27T19:24:28.325Z,12.15
2023-01-27T19:27:11.218Z,13.50
2023-01-27T19:29:41.875Z,10.75
2023-01-27T19:32:18.994Z,13.95
2023-01-27T19:34:54.230Z,14.85
2023-01-27T19:37:25.592Z,13.90
2023-01-27T19:40:03.407Z,11.60
2023-01-27T19:42:30.336Z,9.90
2023-01-27T19:44:59.054Z,18.58
2023-01-27T19:47:26.236Z,11.57
2023-01-27T19:49:56.636Z,12.07
2023-01-27T19:52:24.322Z,11.38
2023-01-27T19:55:06.395Z,12.30
2023-01-27T19:57:45.481Z,10.00
2023-01-27T20:00:29.476Z,12.25
2023-01-27T20:05:48.220Z,12.05
2023-01-27T20:08:25.212Z,17.33
2023-01-27T20:11:01.803Z,13.45
2023-01-27T20:13:44.927Z,10.70
2023-01-27T20:16:15.255Z,12.02
2023-01-27T20:18:43.533Z,10.68
2023-01-27T20:21:21.127Z,13.13
2023-01-27T20:23:52.071Z,13.32
2023-01-27T20:26:28.463Z,11.32
2023-01-27T20:29:01.800Z,12.65
2023-01-27T20:31:40.900Z,13.25
2023-01-27T20:34:13.799Z,11.07
2023-01-27T20:36:48.425Z,17.67
2023-01-27T20:39:18.833Z,12.85
2023-01-27T20:41:45.718Z,10.13
2023-01-27T20:44:20.554Z,12.60
2023-01-27T20:46:49.998Z,10.48
2023-01-27T20:49:29.312Z,12.48
2023-01-27T20:52:04.948Z,11.00
2023-01-27T20:54:31.970Z,10.15
2023-01-27T20:57:01.834Z,13.50
2023-01-27T20:59:37.579Z,14.30
2023-01-27T21:02:13.438Z,15.75
2023-01-27T21:07:30.977Z,15.52
2023-01-27T21:10:08.965Z,12.43
2023-01-27T21:12:35.798Z,11.18
2023-01-27T21:15:13.059Z,15.15
2023-01-27T21:17:43.076Z,15.02
2023-01-27T21:20:23.218Z,11.32
2023-01-27T21:23:01.337Z,12.30
2023-01-27T21:25:45.712Z,17.85
2023-01-27T21:28:23.338Z,12.98
2023-01-27T21:30:53.602Z,11.75
2023-01-27T21:33:21.259Z,14.55
2023-01-27T21:36:15.214Z,15.00
2023-01-27T21:38:59.186Z,13.30
2023-01-27T21:41:44.822Z,13.60
2023-01-27T21:44:43.714Z,13.13
2023-01-27T21:47:30.981Z,11.55
2023-01-27T21:50:04.726Z,10.15
2023-01-27T21:52:44.752Z,14.05
2023-01-27T21:55:30.888Z,11.45
2023-01-27T21:58:04.966Z,11.38
2023-01-27T22:00:40.127Z,11.40
2023-01-27T22:03:17.760Z,12.35
2023-01-27T22:05:51.573Z,14.57
2023-01-27T22:11:12.606Z,11.77
2023-01-27T22:13:57.822Z,17.80
2023-01-27T22:16:33.661Z,14.20
2023-01-27T22:19:04.932Z,13.23
2023-01-27T22:21:49.876Z,15.40
2023-01-27T22:24:19.243Z,15.70
2023-01-27T22:26:55.920Z,10.30
2023-01-27T22:29:32.210Z,14.23
2023-01-27T22:32:26.138Z,11.68
2023-01-27T22:35:12.277Z,8.70
2023-01-27T22:37:50.807Z,9.98
2023-01-27T22:40:18.807Z,13.85
2023-01-27T22:42:58.392Z,11.88
2023-01-27T22:45:47.570Z,13.75
2023-01-27T22:48:21.971Z,19.58
2023-01-27T22:50:59.494Z,15.05
2023-01-27T22:53:34.917Z,14.60
2023-01-27T22:56:23.253Z,13.40
2023-01-27T22:59:06.717Z,13.43
2023-01-27T23:01:34.381Z,10.70
2023-01-27T23:04:09.002Z,12.93
2023-01-27T23:06:42.833Z,10.88
2023-01-27T23:09:14.256Z,14.18
2023-01-27T23:12:03.681Z,14.63
2023-01-27T23:14:38.659Z,17.13
2023-01-27T23:17:18.620Z,13.15
2023-01-27T23:19:53.552Z,14.80
2023-01-27T23:22:45.852Z,16.60
2023-01-27T23:25:32.612Z,11.55
2023-01-27T23:28:04.111Z,14.55
2023-01-27T23:30:35.159Z,11.07
2023-01-27T23:33:14.094Z,11.48
2023-01-27T23:36:00.339Z,16.83
2023-01-27T23:38:49.003Z,14.65
2023-01-27T23:41:38.877Z,19.52
2023-01-27T23:44:27.225Z,15.75
2023-01-27T23:47:16.699Z,8.73
2023-01-27T23:49:58.760Z,12.90
2023-01-27T23:52:47.786Z,10.20
2023-01-27T23:55:18.505Z,15.10
2023-01-27T23:58:01.428Z,13.90
